Time;durP1;ratioP1;P1;durP2;ratioP2;P2;SDS_P1;SDS_P2;PMS_P1;PMS_P2;Temp;Humidity;BMP_temperature;BMP_pressure;BME280_temperature;BME280_humidity;BME280_pressure;Samples;Min_cycle;Max_cycle;Signal;HPM_P1;HPM_P2
2022/12/25 00:01:51;;;;;;;16.98;9.75;;;;;;;8.61;100.00;101285.97;5058923;28;20032;-76
2022/12/25 00:04:16;;;;;;;18.05;11.40;;;;;;;8.61;100.00;101285.97;5060147;28;20033;-76
2022/12/25 00:06:42;;;;;;;16.88;9.48;;;;;;;8.62;100.00;101290.22;5061775;28;20093;-76
2022/12/25 00:09:07;;;;;;;15.68;10.20;;;;;;;8.63;100.00;101281.50;5033558;28;20033;-76
2022/12/25 00:11:33;;;;;;;16.95;10.73;;;;;;;8.61;100.00;101295.53;5059145;28;20373;-76
2022/12/25 00:13:58;;;;;;;13.77;8.60;;;;;;;8.60;100.00;101288.69;5061877;28;20040;-76
2022/12/25 00:16:25;;;;;;;15.18;9.27;;;;;;;8.61;100.00;101283.38;5066229;28;20028;-76
2022/12/25 00:18:51;;;;;;;14.63;9.25;;;;;;;8.61;100.00;101283.38;5061044;28;20033;-76
2022/12/25 00:21:18;;;;;;;12.30;9.05;;;;;;;8.64;100.00;101277.97;5059309;28;20060;-76
2022/12/25 00:23:43;;;;;;;15.43;9.63;;;;;;;8.63;100.00;101271.09;5070909;28;20033;-76
2022/12/25 00:26:14;;;;;;;12.90;9.05;;;;;;;8.66;100.00;101277.84;5074602;28;20035;-76
2022/12/25 00:28:40;;;;;;;13.18;9.05;;;;;;;8.65;100.00;101277.03;5068865;28;20028;-76
2022/12/25 00:31:12;;;;;;;15.45;9.32;;;;;;;8.66;100.00;101275.25;5065333;28;20021;-76
2022/12/25 00:33:39;;;;;;;14.38;9.35;;;;;;;8.64;100.00;101269.34;5066533;28;20037;-76
2022/12/25 00:36:05;;;;;;;13.15;9.70;;;;;;;8.64;100.00;101277.13;5065146;28;20020;-76
2022/12/25 00:38:33;;;;;;;18.30;11.23;;;;;;;8.66;100.00;101272.66;5065242;28;20028;-75
2022/12/25 00:40:58;;;;;;;17.45;10.63;;;;;;;8.63;100.00;101267.69;5059251;28;20081;-75
2022/12/25 00:43:24;;;;;;;21.45;11.88;;;;;;;8.63;100.00;101267.69;5066635;28;20036;-75
2022/12/25 00:45:59;;;;;;;15.55;11.10;;;;;;;8.60;100.00;101255.75;5062576;28;20095;-75
2022/12/25 00:48:25;;;;;;;18.93;12.87;;;;;;;8.61;100.00;101262.59;5064204;28;20024;-76
2022/12/25 00:50:59;;;;;;;19.98;12.43;;;;;;;8.60;100.00;101262.72;5045185;28;20025;-76
2022/12/25 00:53:26;;;;;;;17.08;12.18;;;;;;;8.59;100.00;101250.66;5062191;28;20456;-76
2022/12/25 00:55:58;;;;;;;15.10;10.50;;;;;;;8.60;100.00;101254.91;5077110;28;20052;-76
2022/12/25 00:58:25;;;;;;;18.58;11.88;;;;;;;8.61;100.00;101249.59;5067400;28;20036;-76
2022/12/25 01:00:51;;;;;;;19.17;11.82;;;;;;;8.63;100.00;101254.69;5066131;28;20028;-76
2022/12/25 01:03:17;;;;;;;16.85;11.82;;;;;;;8.64;100.00;101257.19;5067443;28;20501;-76
2022/12/25 01:05:52;;;;;;;20.63;12.50;;;;;;;8.64;100.00;101261.53;5072295;28;20090;-75
2022/12/25 01:08:17;;;;;;;18.73;11.27;;;;;;;8.63;100.00;101268.50;5072737;28;20028;-75
2022/12/25 01:10:43;;;;;;;23.15;12.90;;;;;;;8.61;100.00;101275.59;5066785;28;20042;-76
2022/12/25 01:13:08;;;;;;;19.75;10.70;;;;;;;8.57;100.00;101281.13;5065261;28;20657;-76
2022/12/25 01:15:35;;;;;;;16.50;9.98;;;;;;;8.53;100.00;101284.88;5063301;28;20025;-76
2022/12/25 01:18:01;;;;;;;15.52;10.52;;;;;;;8.50;100.00;101290.31;5068079;28;20089;-75
2022/12/25 01:20:26;;;;;;;16.58;10.98;;;;;;;8.47;100.00;101303.53;5068164;28;20033;-76
2022/12/25 01:22:52;;;;;;;15.50;11.05;;;;;;;8.43;100.00;101299.50;5065692;28;20040;-74
2022/12/25 01:25:17;;;;;;;18.38;10.95;;;;;;;8.41;100.00;101309.97;5066700;28;20467;-75
2022/12/25 01:27:43;;;;;;;15.30;10.57;;;;;;;8.37;100.00;101318.94;5068782;28;20038;-76
2022/12/25 01:30:09;;;;;;;14.95;9.82;;;;;;;8.38;100.00;101318.00;5068396;28;20064;-76
2022/12/25 01:32:34;;;;;;;14.02;9.55;;;;;;;8.39;100.00;101318.81;5062085;28;20126;-76
2022/12/25 01:35:00;;;;;;;20.20;10.50;;;;;;;8.35;100.00;101310.41;5069145;28;20016;-75
2022/12/25 01:37:25;;;;;;;20.92;13.88;;;;;;;8.36;100.00;101316.44;5065979;28;20085;-76
2022/12/25 01:39:51;;;;;;;19.33;12.55;;;;;;;8.37;100.00;101323.28;5048119;28;20031;-76
2022/12/25 01:42:18;;;;;;;16.38;10.85;;;;;;;8.37;100.00;101313.75;5067931;28;20378;-76
2022/12/25 01:44:47;;;;;;;14.82;8.93;;;;;;;8.36;100.00;101316.44;5064002;28;20024;-77
2022/12/25 01:47:15;;;;;;;15.30;8.77;;;;;;;8.37;100.00;101312.91;5072483;28;20040;-76
2022/12/25 01:49:44;;;;;;;12.25;8.48;;;;;;;8.37;100.00;101311.13;5048408;28;20035;-76
2022/12/25 01:52:23;;;;;;;17.55;9.25;;;;;;;8.36;100.00;101321.63;5066936;28;20029;-76
2022/12/25 01:54:56;;;;;;;16.08;9.73;;;;;;;8.36;100.00;101324.22;5066393;28;20041;-76
2022/12/25 01:57:26;;;;;;;19.48;9.93;;;;;;;8.34;100.00;101313.13;5059279;28;20445;-76
2022/12/25 01:59:52;;;;;;;17.05;9.27;;;;;;;8.33;100.00;101307.09;5065755;28;20033;-76
2022/12/25 02:02:18;;;;;;;13.32;8.32;;;;;;;8.33;100.00;101312.28;5073387;28;20066;-76
2022/12/25 02:05:03;;;;;;;14.95;7.88;;;;;;;8.34;100.00;101318.31;5073088;28;20028;-76
2022/12/25 02:07:32;;;;;;;12.93;8.38;;;;;;;8.34;100.00;101318.31;5066940;28;20037;-76
2022/12/25 02:09:57;;;;;;;11.18;8.52;;;;;;;8.36;100.00;101316.44;5073384;28;20476;-77
2022/12/25 02:12:26;;;;;;;11.13;8.25;;;;;;;8.36;100.00;101322.47;5072285;28;20040;-77
2022/12/25 02:14:55;;;;;;;14.30;8.48;;;;;;;8.36;100.00;101330.25;5073768;28;20025;-76
2022/12/25 02:17:23;;;;;;;14.18;9.07;;;;;;;8.36;100.00;101327.66;5079427;28;20549;-76
2022/12/25 02:20:10;;;;;;;14.30;7.90;;;;;;;8.36;100.00;101319.03;5073397;28;20124;-76
2022/12/25 02:22:51;;;;;;;14.15;7.30;;;;;;;8.44;100.00;101316.72;5073165;28;20032;-76
2022/12/25 02:25:29;;;;;;;10.63;7.45;;;;;;;8.46;100.00;101327.84;5064934;28;20032;-77
2022/12/25 02:28:15;;;;;;;13.60;8.45;;;;;;;8.46;100.00;101317.44;5066315;28;20040;-76
2022/12/25 02:30:48;;;;;;;14.45;7.82;;;;;;;8.48;100.00;101323.38;5071318;28;20058;-76
2022/12/25 02:36:12;;;;;;;12.57;6.82;;;;;;;8.45;100.00;101319.22;5068496;28;20048;-77
2022/12/25 02:39:56;;;;;;;10.23;7.15;;;;;;;8.43;100.00;101317.66;5053575;28;20028;-77
2022/12/25 02:41:34;;;;;;;14.32;7.57;;;;;;;8.37;100.00;101310.31;5078396;28;20044;-76
2022/12/25 03:06:42;;;;;;;11.27;5.97;;;;;;;8.22;100.00;101326.00;5072206;28;20672;-76
2022/12/25 03:12:28;;;;;;;9.90;6.30;;;;;;;8.15;100.00;101322.19;5070025;28;20532;-76
2022/12/25 03:17:38;;;;;;;11.98;7.05;;;;;;;8.19;100.00;101320.19;5072269;28;20040;-76
2022/12/25 03:28:17;;;;;;;12.90;7.10;;;;;;;8.15;100.00;101309.19;5068222;28;20051;-76
2022/12/25 03:31:11;;;;;;;8.35;6.25;;;;;;;8.14;100.00;101297.16;5070302;28;20029;-76
2022/12/25 04:37:41;;;;;;;32.40;22.20;;;;;;;8.41;100.00;101319.53;5052459;28;20121;-76
2022/12/25 04:40:07;;;;;;;26.15;17.77;;;;;;;8.42;100.00;101331.59;5045719;28;20450;-77
2022/12/25 04:42:33;;;;;;;20.75;14.98;;;;;;;8.41;100.00;101327.34;5045242;28;20427;-76
2022/12/25 04:44:58;;;;;;;22.75;16.02;;;;;;;8.40;100.00;101317.88;5054170;28;20024;-76
2022/12/25 04:47:24;;;;;;;21.65;14.68;;;;;;;8.39;100.00;101321.41;5045458;28;20082;-76
2022/12/25 04:49:49;;;;;;;21.27;15.27;;;;;;;8.38;100.00;101319.75;5026460;28;20089;-76
2022/12/25 04:52:14;;;;;;;25.38;16.58;;;;;;;8.37;100.00;101315.50;5061636;28;20135;-76
2022/12/25 04:54:40;;;;;;;22.98;16.35;;;;;;;8.36;100.00;101316.44;5064178;28;20036;-76
2022/12/25 04:57:05;;;;;;;27.17;16.88;;;;;;;8.33;100.00;101312.28;5064109;28;20039;-76
2022/12/25 04:59:31;;;;;;;19.83;15.25;;;;;;;8.31;100.00;101314.97;5055910;28;20509;-76
2022/12/25 05:01:56;;;;;;;19.30;13.98;;;;;;;8.31;100.00;101316.75;5053511;28;20033;-76
2022/12/25 05:04:22;;;;;;;22.05;14.85;;;;;;;8.28;100.00;101320.38;5054012;28;20028;-76
2022/12/25 05:06:47;;;;;;;19.52;13.98;;;;;;;8.28;100.00;101329.94;5056562;28;20043;-76
2022/12/25 05:09:13;;;;;;;20.25;15.52;;;;;;;8.26;100.00;101332.63;5053752;28;20036;-76
2022/12/25 05:11:38;;;;;;;21.55;15.25;;;;;;;8.26;100.00;101326.63;5053196;28;20103;-76
2022/12/25 05:14:04;;;;;;;20.77;13.73;;;;;;;8.26;100.00;101322.25;5053983;28;20037;-76
2022/12/25 05:16:29;;;;;;;20.05;14.20;;;;;;;8.26;100.00;101327.44;5066423;28;20494;-76
2022/12/25 05:18:54;;;;;;;25.23;16.60;;;;;;;8.25;100.00;101319.75;5069003;28;20089;-76
2022/12/25 05:21:21;;;;;;;10.93;6.97;;;;;;;8.21;100.00;101323.50;5064623;28;20037;-76
2022/12/25 05:23:50;;;;;;;8.85;5.15;;;;;;;8.21;100.00;101326.09;5052767;28;20685;-75
2022/12/25 05:26:18;;;;;;;8.73;5.80;;;;;;;8.21;100.00;101329.53;5052258;28;20085;-75
2022/12/25 05:28:44;;;;;;;6.80;4.18;;;;;;;8.22;100.00;101320.81;5054478;28;20036;-76
2022/12/25 05:31:09;;;;;;;8.73;5.13;;;;;;;8.22;100.00;101325.16;5053436;28;20087;-76
2022/12/25 05:33:35;;;;;;;10.52;4.75;;;;;;;8.23;100.00;101327.66;5052372;28;20130;-76
2022/12/25 05:36:06;;;;;;;6.50;4.47;;;;;;;8.25;100.00;101324.97;5051409;28;20476;-76
2022/12/25 05:38:32;;;;;;;7.50;4.65;;;;;;;8.30;100.00;101325.47;5025818;28;20491;-76
2022/12/25 05:40:57;;;;;;;6.35;4.18;;;;;;;8.33;100.00;101322.69;5052864;28;20032;-76
2022/12/25 05:43:23;;;;;;;7.70;5.07;;;;;;;8.34;100.00;101323.50;5052702;28;20555;-76
2022/12/25 05:45:49;;;;;;;10.55;4.75;;;;;;;8.34;100.00;101324.34;5055372;28;20024;-77
2022/12/25 05:48:15;;;;;;;7.90;5.05;;;;;;;8.34;100.00;101331.31;5051496;28;20032;-76
2022/12/25 05:50:40;;;;;;;7.28;5.72;;;;;;;8.30;100.00;101334.09;5053106;28;20486;-76
2022/12/25 05:53:11;;;;;;;6.43;4.97;;;;;;;8.28;100.00;101335.13;5055329;28;20046;-76
2022/12/25 05:55:38;;;;;;;10.75;6.78;;;;;;;8.28;100.00;101332.53;5061096;28;20098;-76
2022/12/25 05:58:05;;;;;;;17.40;8.50;;;;;;;8.24;100.00;101334.50;5067739;28;20032;-76
2022/12/25 06:00:31;;;;;;;14.48;9.68;;;;;;;8.24;100.00;101338.88;5041173;28;20083;-76
2022/12/25 06:02:57;;;;;;;13.43;8.57;;;;;;;8.23;100.00;101340.63;5063849;28;20028;-76
2022/12/25 06:05:22;;;;;;;29.52;18.23;;;;;;;8.25;100.00;101340.53;5065452;28;20089;-76
2022/12/25 06:07:47;;;;;;;26.52;15.57;;;;;;;8.26;100.00;101348.22;5064363;28;20036;-76
2022/12/25 06:10:13;;;;;;;17.40;12.15;;;;;;;8.28;100.00;101351.53;5069578;28;20032;-76
2022/12/25 06:12:38;;;;;;;17.42;12.68;;;;;;;8.30;100.00;101348.84;5061703;28;20037;-77
2022/12/25 06:15:05;;;;;;;20.88;14.57;;;;;;;8.30;100.00;101354.84;5061279;28;20052;-76
2022/12/25 06:17:30;;;;;;;23.52;16.67;;;;;;;8.29;100.00;101354.97;5069355;28;20411;-76
2022/12/25 06:19:56;;;;;;;23.05;15.57;;;;;;;8.29;100.00;101349.78;5066466;28;20043;-76
2022/12/25 06:22:21;;;;;;;22.15;14.95;;;;;;;8.31;100.00;101360.88;5058297;28;20395;-76
2022/12/25 06:24:47;;;;;;;30.85;18.02;;;;;;;8.32;100.00;101358.19;5066831;28;20032;-76
2022/12/25 06:27:12;;;;;;;23.13;17.20;;;;;;;8.32;100.00;101363.41;5064366;28;20044;-76
2022/12/25 06:29:38;;;;;;;22.33;16.02;;;;;;;8.31;100.00;101356.50;5060625;28;20039;-76
2022/12/25 06:32:03;;;;;;;25.63;17.60;;;;;;;8.30;100.00;101359.22;5070249;28;20056;-76
2022/12/25 06:34:29;;;;;;;20.73;15.20;;;;;;;8.31;100.00;101369.50;5068167;28;20584;-76
2022/12/25 06:36:54;;;;;;;22.90;15.93;;;;;;;8.30;100.00;101364.41;5061177;28;20035;-76
2022/12/25 06:39:20;;;;;;;23.95;15.98;;;;;;;8.29;100.00;101368.78;5065765;28;20032;-76
2022/12/25 06:41:46;;;;;;;16.67;9.38;;;;;;;8.31;100.00;101371.25;5069693;28;20047;-76
2022/12/25 06:44:12;;;;;;;18.40;11.18;;;;;;;8.31;100.00;101377.28;5062217;28;20442;-76
2022/12/25 06:46:38;;;;;;;16.40;12.20;;;;;;;8.34;100.00;101375.44;5063838;28;20025;-76
2022/12/25 06:49:03;;;;;;;13.43;10.60;;;;;;;8.35;100.00;101371.91;5068982;28;20048;-76
2022/12/25 06:51:31;;;;;;;10.98;7.53;;;;;;;8.35;100.00;101374.50;5067137;28;20028;-76
2022/12/25 06:53:57;;;;;;;9.35;5.60;;;;;;;8.29;100.00;101384.34;5065829;28;20061;-76
2022/12/25 06:56:25;;;;;;;8.00;4.57;;;;;;;8.27;100.00;101380.19;5073512;28;20040;-76
2022/12/25 06:58:59;;;;;;;6.05;4.60;;;;;;;8.24;100.00;101386.44;5067362;28;20150;-76
2022/12/25 07:01:38;;;;;;;8.88;5.07;;;;;;;8.19;100.00;101382.50;5068703;28;20119;-76
2022/12/25 07:04:06;;;;;;;8.90;5.03;;;;;;;8.19;100.00;101382.50;5068344;28;20094;-76
2022/12/25 07:06:33;;;;;;;10.68;5.65;;;;;;;8.18;100.00;101388.63;5069651;28;20040;-76
2022/12/25 07:08:58;;;;;;;7.22;4.78;;;;;;;8.18;100.00;101388.63;5069526;28;20368;-77
2022/12/25 07:11:24;;;;;;;7.40;5.35;;;;;;;8.16;100.00;101393.91;5069040;28;20027;-77
2022/12/25 07:13:49;;;;;;;8.13;5.63;;;;;;;8.15;100.00;101396.63;5048329;28;20124;-76
2022/12/25 07:16:15;;;;;;;8.40;5.80;;;;;;;8.17;100.00;101394.75;5070448;28;20032;-77
2022/12/25 07:18:41;;;;;;;9.13;4.90;;;;;;;8.15;100.00;101397.44;5069812;28;20111;-76
2022/12/25 07:21:09;;;;;;;9.95;7.03;;;;;;;8.20;100.00;101394.53;5067222;28;20114;-76
2022/12/25 07:23:34;;;;;;;9.77;5.03;;;;;;;8.21;100.00;101401.41;5066461;28;20036;-76
2022/12/25 07:26:01;;;;;;;9.88;5.57;;;;;;;8.24;100.00;101402.00;5051347;28;20040;-76
2022/12/25 07:28:27;;;;;;;13.27;8.27;;;;;;;8.26;100.00;101396.72;5068472;28;20028;-76
2022/12/25 07:30:53;;;;;;;11.95;7.10;;;;;;;8.28;100.00;101400.88;5065097;28;20826;-76
2022/12/25 07:33:18;;;;;;;9.55;5.55;;;;;;;8.32;100.00;101404.94;5050968;28;20032;-75
2022/12/25 07:35:44;;;;;;;7.00;5.10;;;;;;;8.36;100.00;101415.94;5070307;28;20117;-75
2022/12/25 07:38:10;;;;;;;9.55;6.43;;;;;;;8.40;100.00;101427.78;5065848;28;20036;-75
2022/12/25 07:40:36;;;;;;;11.68;4.63;;;;;;;8.44;100.00;101423.22;5071982;28;20877;-75
2022/12/25 07:43:01;;;;;;;8.15;4.55;;;;;;;8.47;100.00;101417.78;5066618;28;20115;-75
2022/12/25 07:45:26;;;;;;;7.18;4.05;;;;;;;8.51;100.00;101427.00;5065588;28;20123;-75
2022/12/25 07:47:52;;;;;;;6.85;3.85;;;;;;;8.53;100.00;101425.13;5069701;28;20124;-75
2022/12/25 07:50:18;;;;;;;5.22;3.22;;;;;;;8.54;100.00;101430.22;5070434;28;20045;-75
2022/12/25 07:52:45;;;;;;;7.07;3.78;;;;;;;8.58;100.00;101441.22;5070670;28;20090;-75
2022/12/25 07:55:11;;;;;;;7.50;4.90;;;;;;;8.62;100.00;101440.06;5071714;28;20044;-75
2022/12/25 07:57:37;;;;;;;11.13;6.57;;;;;;;8.62;100.00;101453.88;5074249;28;20177;-75
2022/12/25 08:00:04;;;;;;;14.27;8.65;;;;;;;8.64;100.00;101451.19;5070543;28;20043;-74
2022/12/25 08:02:29;;;;;;;15.18;6.97;;;;;;;8.68;100.00;101460.44;5064951;28;20033;-75
2022/12/25 08:04:55;;;;;;;8.93;5.20;;;;;;;8.71;100.00;101459.38;5066061;28;20047;-74
2022/12/25 08:07:21;;;;;;;9.40;5.53;;;;;;;8.70;100.00;101455.13;5066449;28;20043;-74
2022/12/25 08:09:46;;;;;;;5.10;4.32;;;;;;;8.71;100.00;101455.00;5075534;28;20029;-74
2022/12/25 08:12:12;;;;;;;6.88;4.63;;;;;;;8.73;100.00;101460.94;5071867;28;20123;-74
2022/12/25 08:14:37;;;;;;;8.32;5.95;;;;;;;8.74;100.00;101462.59;5066059;28;20040;-74
2022/12/25 08:17:03;;;;;;;9.75;6.13;;;;;;;8.74;100.00;101470.38;5069892;28;20042;-74
2022/12/25 08:19:28;;;;;;;7.53;5.57;;;;;;;8.76;100.00;101468.50;5048460;28;20116;-74
2022/12/25 08:21:54;;;;;;;8.00;5.18;;;;;;;8.76;100.00;101465.91;5071682;28;20046;-75
2022/12/25 08:24:20;;;;;;;9.20;6.43;;;;;;;8.76;100.00;101471.13;5068272;28;20039;-75
2022/12/25 08:26:46;;;;;;;11.30;6.40;;;;;;;8.73;100.00;101467.91;5067232;28;20020;-75
2022/12/25 08:29:11;;;;;;;11.93;6.00;;;;;;;8.74;100.00;101473.00;5072933;28;20037;-75
2022/12/25 08:31:37;;;;;;;9.43;5.65;;;;;;;8.78;100.00;101482.22;5065848;28;20035;-75
2022/12/25 08:34:03;;;;;;;10.25;5.75;;;;;;;8.82;100.00;101483.69;5064381;28;20032;-75
2022/12/25 08:36:29;;;;;;;7.97;5.10;;;;;;;8.85;100.00;101480.84;5065596;28;20047;-75
2022/12/25 08:38:55;;;;;;;6.53;4.32;;;;;;;8.85;100.00;101482.63;5046724;28;20036;-75
2022/12/25 08:41:21;;;;;;;5.28;4.10;;;;;;;8.86;100.00;101490.31;5074179;28;20109;-75
2022/12/25 08:43:47;;;;;;;6.70;4.05;;;;;;;8.89;100.00;101492.69;5066465;28;20032;-75
2022/12/25 08:46:12;;;;;;;7.75;4.28;;;;;;;8.91;100.00;101485.63;5069965;28;20040;-75
2022/12/25 08:48:43;;;;;;;11.55;5.03;;;;;;;8.91;100.00;101487.41;5062595;28;20040;-74
2022/12/25 08:51:15;;;;;;;7.10;4.13;;;;;;;8.92;100.00;101486.47;5072579;28;20074;-75
2022/12/25 08:53:44;;;;;;;8.20;5.32;;;;;;;8.99;100.00;101493.69;5060624;28;20051;-75
2022/12/25 08:56:10;;;;;;;8.77;5.03;;;;;;;9.03;100.00;101496.91;5046090;28;20057;-75
2022/12/25 08:58:35;;;;;;;11.52;5.22;;;;;;;9.05;100.00;101491.59;5070227;28;23043;-75
2022/12/25 09:01:01;;;;;;;10.93;6.30;;;;;;;9.07;100.00;101494.91;5061901;28;20055;-75
2022/12/25 09:03:27;;;;;;;9.77;5.13;;;;;;;9.11;100.00;101488.56;5060983;28;20036;-74
2022/12/25 09:05:53;;;;;;;11.85;5.95;;;;;;;9.19;100.00;101496.63;5066562;28;20048;-75
2022/12/25 09:08:20;;;;;;;11.50;5.97;;;;;;;9.25;100.00;101493.59;5063227;28;20040;-76
2022/12/25 09:10:46;;;;;;;12.70;9.18;;;;;;;9.31;100.00;101498.34;5063570;28;20036;-74
2022/12/25 09:13:12;;;;;;;18.98;11.75;;;;;;;9.36;100.00;101496.25;5059146;28;20033;-75
2022/12/25 09:15:38;;;;;;;22.17;13.65;;;;;;;9.43;100.00;101500.06;5064894;28;20479;-76
2022/12/25 09:18:04;;;;;;;14.95;10.18;;;;;;;9.46;100.00;101499.81;5063880;28;20051;-74
2022/12/25 09:20:30;;;;;;;18.02;12.32;;;;;;;9.52;100.00;101501.97;5060468;28;20016;-73
2022/12/25 09:22:55;;;;;;;18.25;12.57;;;;;;;9.56;100.00;101495.59;5064579;28;20029;-75
2022/12/25 09:25:21;;;;;;;19.95;13.18;;;;;;;9.60;100.00;101504.03;5069016;28;20028;-75
2022/12/25 09:27:46;;;;;;;18.80;13.10;;;;;;;9.60;100.00;101504.84;5071361;28;20029;-71
2022/12/25 09:30:12;;;;;;;13.30;8.70;;;;;;;9.57;100.00;101510.28;5069713;28;20123;-72
2022/12/25 09:32:39;;;;;;;11.27;8.10;;;;;;;9.52;100.00;101517.59;5046062;28;20032;-72
2022/12/25 09:35:06;;;;;;;12.77;8.68;;;;;;;9.55;100.00;101516.53;5065539;28;20054;-71
2022/12/25 09:37:31;;;;;;;11.70;7.32;;;;;;;9.56;100.00;101520.78;5061934;28;20036;-72
2022/12/25 09:39:56;;;;;;;10.60;7.53;;;;;;;9.55;100.00;101519.97;5065616;28;20029;-72
2022/12/25 09:42:27;;;;;;;15.27;8.63;;;;;;;9.53;100.00;101519.25;5050158;28;20036;-72
2022/12/25 09:44:58;;;;;;;13.05;7.57;;;;;;;9.50;100.00;101518.63;5064577;28;20045;-72
2022/12/25 09:47:33;;;;;;;11.18;7.35;;;;;;;9.53;100.00;101516.66;5062461;28;20048;-73
2022/12/25 09:50:25;;;;;;;11.80;8.23;;;;;;;9.57;100.00;101514.66;5045770;28;20037;-77
2022/12/25 09:53:13;;;;;;;12.25;8.07;;;;;;;9.65;100.00;101512.31;5063087;28;20437;-77
2022/12/25 09:55:57;;;;;;;11.45;7.03;;;;;;;9.70;100.00;101517.19;5061586;28;20123;-77
2022/12/25 09:58:24;;;;;;;10.88;7.80;;;;;;;9.72;100.00;101510.94;5065981;28;20029;-76
2022/12/25 10:01:06;;;;;;;13.32;8.18;;;;;;;9.74;100.00;101510.81;5066410;28;20119;-77
2022/12/25 10:04:00;;;;;;;12.25;7.75;;;;;;;9.73;100.00;101516.97;5064377;28;20060;-77
2022/12/25 10:06:54;;;;;;;15.25;7.65;;;;;;;9.70;100.00;101530.19;5059388;28;20048;-77
2022/12/25 10:09:38;;;;;;;13.93;8.57;;;;;;;9.64;100.00;101529.69;5062292;28;20032;-76
2022/12/25 10:12:40;;;;;;;11.70;8.25;;;;;;;9.60;100.00;101525.66;5064513;28;20472;-76
2022/12/25 10:15:15;;;;;;;12.13;8.07;;;;;;;9.61;100.00;101529.09;5067008;28;20040;-77
2022/12/25 10:17:50;;;;;;;9.85;7.28;;;;;;;9.62;100.00;101528.97;5062978;28;20052;-77
2022/12/25 10:20:27;;;;;;;12.23;7.50;;;;;;;9.62;100.00;101528.16;5065539;28;20036;-77
2022/12/25 10:22:58;;;;;;;14.43;8.40;;;;;;;9.61;100.00;101527.31;5046381;28;20047;-77
2022/12/25 10:25:24;;;;;;;12.45;9.07;;;;;;;9.61;100.00;101527.31;5065157;28;20174;-77
2022/12/25 10:28:01;;;;;;;14.95;7.90;;;;;;;9.61;100.00;101537.72;5070704;28;20021;-77
2022/12/25 10:30:28;;;;;;;11.15;8.65;;;;;;;9.63;100.00;101532.41;5069729;28;20479;-74
2022/12/25 10:32:58;;;;;;;14.65;9.20;;;;;;;9.60;100.00;101543.03;5073340;28;20082;-73
2022/12/25 10:35:26;;;;;;;13.85;9.70;;;;;;;9.60;100.00;101546.47;5067142;28;20037;-73
2022/12/25 10:38:01;;;;;;;15.90;9.23;;;;;;;9.60;100.00;101546.47;5064830;28;20024;-73
2022/12/25 10:40:35;;;;;;;14.13;9.48;;;;;;;9.58;100.00;101544.94;5064831;28;20033;-74
2022/12/25 10:43:21;;;;;;;14.10;7.90;;;;;;;9.50;100.00;101540.28;5066523;28;20029;-74
2022/12/25 10:45:48;;;;;;;;;;;;;;;9.41;100.00;101535.78;5077674;28;20029;-73
2022/12/25 10:48:26;;;;;;;11.15;8.27;;;;;;;9.47;100.00;101527.50;5065263;28;20308;-72
2022/12/25 10:50:52;;;;;;;10.73;8.27;;;;;;;9.57;100.00;101535.47;5068710;28;20111;-72
2022/12/25 10:53:26;;;;;;;11.80;8.45;;;;;;;9.62;100.00;101538.56;5065851;28;20111;-69
2022/12/25 10:56:04;;;;;;;11.68;8.25;;;;;;;9.57;100.00;101535.47;5062577;28;20395;-74
2022/12/25 10:58:30;;;;;;;10.93;7.65;;;;;;;9.56;100.00;101534.63;5065215;28;20036;-73
2022/12/25 11:01:03;;;;;;;10.57;6.32;;;;;;;9.56;100.00;101529.44;5069182;28;20032;-74
2022/12/25 11:03:35;;;;;;;14.20;6.97;;;;;;;9.59;100.00;101529.22;5046014;28;20032;-74
2022/12/25 11:06:02;;;;;;;10.98;6.68;;;;;;;9.62;100.00;101530.75;5068532;28;20044;-74
2022/12/25 11:08:30;;;;;;;9.13;6.60;;;;;;;9.61;100.00;101531.69;5072586;28;20051;-74
2022/12/25 11:11:07;;;;;;;12.02;6.70;;;;;;;9.62;100.00;101523.78;5070530;28;20039;-74
2022/12/25 11:13:41;;;;;;;10.32;6.32;;;;;;;9.63;100.00;101528.03;5068532;28;20111;-74
2022/12/25 11:16:14;;;;;;;10.05;5.70;;;;;;;9.68;100.00;101517.28;5049745;28;20036;-73
2022/12/25 11:18:50;;;;;;;11.18;7.22;;;;;;;9.71;100.00;101518.84;5069601;28;20025;-74
2022/12/25 11:21:18;;;;;;;11.20;7.50;;;;;;;9.70;100.00;101523.22;5048482;28;20032;-73
2022/12/25 11:23:47;;;;;;;12.63;6.20;;;;;;;9.70;100.00;101514.59;5067855;28;20082;-73
2022/12/25 11:26:13;;;;;;;10.45;6.45;;;;;;;9.70;100.00;101514.59;5050379;28;20032;-74
2022/12/25 11:28:41;;;;;;;11.13;7.00;;;;;;;9.73;100.00;101509.16;5060314;28;20032;-74
2022/12/25 11:31:13;;;;;;;9.90;6.10;;;;;;;9.75;100.00;101512.47;5064124;28;20128;-73
2022/12/25 11:33:50;;;;;;;11.02;6.07;;;;;;;9.73;100.00;101506.56;5067860;28;20043;-73
2022/12/25 11:36:31;;;;;;;8.35;6.13;;;;;;;9.79;100.00;101503.50;5067988;28;20085;-74
2022/12/25 11:39:12;;;;;;;9.85;6.45;;;;;;;9.88;100.00;101502.81;5063160;28;20032;-74
2022/12/25 11:41:40;;;;;;;15.88;7.28;;;;;;;9.95;100.00;101494.41;5061526;28;20185;-73
2022/12/25 11:44:26;;;;;;;12.50;8.00;;;;;;;9.95;100.00;101489.19;5063129;28;20047;-74
2022/12/25 11:47:00;;;;;;;10.35;7.43;;;;;;;9.98;100.00;101485.53;5060426;28;20476;-73
2022/12/25 11:49:27;;;;;;;14.10;8.98;;;;;;;10.00;100.00;101481.03;5065712;28;20074;-74
2022/12/25 11:51:56;;;;;;;12.25;8.93;;;;;;;9.96;100.00;101484.81;5064536;28;20017;-74
2022/12/25 11:54:28;;;;;;;13.20;9.07;;;;;;;9.95;100.00;101480.56;5059790;28;20060;-74
2022/12/25 11:56:56;;;;;;;14.57;9.32;;;;;;;10.00;100.00;101486.25;5067124;28;20477;-74
2022/12/25 11:59:34;;;;;;;14.82;9.48;;;;;;;10.04;100.00;101492.88;5063279;28;20842;-73
2022/12/25 12:02:27;;;;;;;12.57;9.20;;;;;;;10.07;100.00;101481.41;5068257;28;20048;-73
2022/12/25 12:05:03;;;;;;;17.45;9.35;;;;;;;10.03;100.00;101480.81;5063972;28;20033;-72
2022/12/25 12:07:31;;;;;;;12.10;8.70;;;;;;;10.03;100.00;101482.59;5064802;28;20037;-73
2022/12/25 12:10:04;;;;;;;12.48;8.73;;;;;;;10.03;100.00;101482.59;5068249;28;20067;-73
2022/12/25 12:12:51;;;;;;;14.60;10.02;;;;;;;10.06;100.00;101475.38;5064430;28;20119;-73
2022/12/25 12:15:42;;;;;;;13.05;9.60;;;;;;;10.03;100.00;101461.75;5064800;28;20108;-73
2022/12/25 12:18:30;;;;;;;15.25;11.35;;;;;;;10.06;100.00;101458.91;5054594;28;20040;-73
2022/12/25 12:21:29;;;;;;;16.25;11.27;;;;;;;10.12;100.00;101459.28;5065421;28;20357;-73
2022/12/25 12:24:03;;;;;;;13.98;10.30;;;;;;;10.15;100.00;101461.66;5053867;28;20583;-73
2022/12/25 12:26:35;;;;;;;14.88;11.05;;;;;;;10.17;100.00;101469.34;5067023;28;20048;-73
2022/12/25 12:29:04;;;;;;;18.35;11.93;;;;;;;10.15;100.00;101458.22;5071498;28;20483;-73
2022/12/25 12:32:00;;;;;;;20.27;12.77;;;;;;;10.10;100.00;101461.19;5069161;28;20032;-73
2022/12/25 12:34:31;;;;;;;16.98;11.90;;;;;;;10.11;100.00;101457.63;5061649;28;20394;-73
2022/12/25 12:37:16;;;;;;;17.63;11.73;;;;;;;10.00;100.00;101457.59;5064130;28;20989;-73
2022/12/25 12:39:41;;;;;;;14.82;11.65;;;;;;;10.02;100.00;101463.53;5066123;28;20032;-73
2022/12/25 12:42:17;;;;;;;17.95;12.95;;;;;;;9.98;100.00;101459.50;5061647;28;20399;-73
2022/12/25 12:44:44;;;;;;;22.05;12.13;;;;;;;9.98;100.00;101459.50;5064429;28;20127;-73
2022/12/25 12:47:26;;;;;;;15.93;12.15;;;;;;;9.99;100.00;101458.56;5063607;28;20115;-73
2022/12/25 12:49:59;;;;;;;14.80;11.38;;;;;;;9.99;100.00;101464.59;5061604;28;20119;-73
2022/12/25 12:52:35;;;;;;;15.35;11.23;;;;;;;10.01;100.00;101461.88;5058216;28;20025;-71
2022/12/25 12:55:06;;;;;;;;;;;;;;;9.97;100.00;101465.66;5063259;28;20036;-72
2022/12/25 12:57:38;;;;;;;15.88;10.88;;;;;;;9.96;100.00;101457.00;5061803;28;19920;-71
2022/12/25 13:00:08;;;;;;;15.30;10.70;;;;;;;9.92;100.00;101458.19;5062907;28;20023;-72
2022/12/25 13:03:00;;;;;;;13.40;10.13;;;;;;;9.88;100.00;101467.19;5063018;28;20031;-71
2022/12/25 13:05:53;;;;;;;14.18;10.38;;;;;;;9.83;100.00;101468.50;5062395;28;20443;-72
2022/12/25 13:08:45;;;;;;;15.75;10.73;;;;;;;9.82;100.00;101467.66;5062851;28;20028;-71
2022/12/25 13:11:26;;;;;;;16.75;11.93;;;;;;;9.87;100.00;101472.53;5065523;28;20029;-72
2022/12/25 13:13:55;;;;;;;14.95;11.65;;;;;;;9.91;100.00;101472.19;5063414;28;20028;-72